Damar, Kansas
Current Conditions -  °F | °C
As of 10:53 PM on Wednesday 17 Dec 2014 (Local Time) from KHLC Reporting Station
Haze Haze  
Wind Chill: 18°   Ceiling: 400
Heat Index: 26°   Visibility: 3mi
Dew Point: 24°   Wind: 8mph
Humidity: 92%   Direction: 90°E
Pressure: 30.14"   Gusts: NA
Location:  39.32°N, 99.58°W
Report Text: KHLC 180453Z AUTO 09007KT 3SM BR OVC004 M03/M04 A3014 RMK AO2 SLP234 I1000 T10331044
Loading
Personal Weather Stations






























Interactive Weather Map New forecast layout! Learn more

10-Day Weather Forecast

Advertisements
Track Severe Weather on mobile